Aktualne dane pomiarowe

Uwaga, wersja testowa! Automatyczne pobieranie danych za pomocą narzędzi lub skryptów to umożliwiających jest zabronione.

Dane meteo z obszaru Polski uzyskane na podstawie depesz SYNOP pobieranych co godzinę z NWS. Najedź myszką na symbol przedstawiony w tabeli, aby uzyskać informacje co do jego znaczenia. Prosimy pamiętać, że to testowa wersja strony, która jeszcze nie jest ukończona. Stworzono również jest krótki FAQ dotyczący korzystania z tej podstrony Anomalie temperatury w chwili obecnej odniesione są do okresu referencyjnego 1951-2016. Okres ten będzie później zmieniony na 1981-2010. Kliknij ikonę aby pobrać plik CSV. Kliknij ikonę aby wygenerować mapę synoptyczną dla danego terminu.

Wybierz Datę:    

        

Zbyt duży zakres wybranych dni (60). Ograniczono do 5.

Warszawa-Okęcie (12375)

Dane terminowe dla wybranej stacji. Kliknij datę, aby otrzymać dane z tego terminu dla wszystkich stacji.

TemperaturaZachmurzenieWiatrCiśnienieOpadyPogoda
 Data t td wb tx tn tg rh  Nt Nl Cl Cm Ch ws wd g1 g2 wx mslp ppp ch 24h 12h t ww ww w1 w2  
2019-05-21 23:00:00 12.7 10.3 11.1--- 8535.0wxwxwx5wx--51003.2 990.6 -0.5---------
2019-05-21 22:00:00 13.0 10.5 11.3--- 8535.0wx-5wx--51003.5 990.9 0.4---------
2019-05-21 21:00:00 13.5 10.9 11.7--- 8435.0wx-wx5wx-1351003.7 991.1 1.1---------
2019-05-21 20:00:00 14.6 11.3 12.4--- 8135.0wxwxwxwx5wx---1003.7 991.1 1.4---------
2019-05-21 19:00:00 16.0 11.5 13.1--- 7535.0wxwxwxwx7wx-1371003.0 990.5 1.2---------
2019-05-21 18:00:00 18.1 11.0 13.7 22.1 16.7- 6335.0wxwxwxwx7wx-1171002.4 990.0 0.4- 2.012wx-w1w2--
2019-05-21 17:00:00 19.1 11.2 14.2--- 6035.0wxwxwxwx8wx--81002.1 989.7 0.0---------
2019-05-21 16:00:00 20.7 12.2 15.4--- 5835.0wxwxwxwx10wx--101001.6 989.3 -1.0---------
2019-05-21 15:00:00 20.9 14.6 16.8--- 6735.0wxwxwxwx6wx-1161001.9 989.6 -0.9---wx-w1w2--
2019-05-21 14:00:00 21.6 16.2 18.0--- 7135.0wxwxwxwx5wx--51002.0 989.7 -1.5---wx-w1--
2019-05-21 13:00:00 19.7 16.4 17.4--- 8130.0wxwxwxwx5wx-1151002.6 990.3 -1.5---wx---
2019-05-21 12:00:00 20.7 15.6 17.3--- 7335.0wxwxwx5wx--51002.8 990.5 -1.3- 0.06------
2019-05-21 11:00:00 20.2 16.1 17.4--- 7735.0wxwxwxwx5wx--51003.5 991.2 -1.1---------
2019-05-21 10:00:00 19.2 15.2 16.5--- 7835.0wxwxwx5wx--51004.2 991.8 -0.8---------
2019-05-21 09:00:00 20.6 14.6 16.7--- 6935.0wxwxwxwxwx3wx---1004.1 991.8 -1.0---------
2019-05-21 08:00:00 18.6 13.8 15.4--- 7435.0wxwxwxwxwx3wx--31004.7 992.3 -0.5---------
2019-05-21 07:00:00 17.9 13.7 15.1--- 7635.0wxwxwxwxwx2wx--21005.0 992.6 -0.3---------
2019-05-21 06:00:00 16.8 14.2 15.0 17.5 14.3 14 8535.0wxwxwxwxwx2wx--21005.3 992.8 -0.1 3.5 0.112----- 6.6
2019-05-21 05:00:00 15.0 13.8 14.1--- 9320.0wxwxwxwx3wx--31005.4 992.8 -0.2---------
2019-05-21 04:00:00 14.7 14.2 14.3--- 9710.0wxwxwx3wx--31005.5 992.9 -0.4---------
2019-05-21 03:00:00 14.3 13.8 13.9--- 975.0wxwxwx3wx--31005.5 992.9 -0.4---wx---
2019-05-21 02:00:00 14.3 13.9 14.0--- 9710.0wxwxwx3wx--31005.6 993.0 -0.5---------
2019-05-21 01:00:00 14.3 13.9 14.0--- 9710.0wxwxwx4wx--41005.9 993.3 -0.2---------
2019-05-21 00:00:00 14.6 13.9 14.1--- 9618.0wxwxwx4wx---1005.9 993.3 0.1---wx-w1--
2019-05-20 23:00:00 15.3 14.6 14.8--- 9616.0wxwxwxwx6wx--61006.1 993.5 0.0---------
2019-05-20 22:00:00 15.7 14.8 15.0--- 9418.0wxwxwxwx3wx--31006.1 993.5 -0.1---------
2019-05-20 21:00:00 16.1 15.2 15.4--- 9420.0wxwxwxwx3wx--31005.7 993.2 0.5---wx-w1--
2019-05-20 20:00:00 17.1 16.6 16.7--- 9711.0wxwxwxwx2wx--21006.0 993.5 0.1---------
2019-05-20 19:00:00 17.3 16.6 16.8--- 9614.0wxwxwxwx2wx---1006.1 993.6 1.6---wx---
2019-05-20 18:00:00 17.5 16.6 16.8 25.4 17.5- 9415.0wxwxwx3wx--31005.2 992.7 0.0- 3.012wx-w1w2--
2019-05-20 17:00:00 19.3 16.4 17.3--- 8320.0wxwxwxwx7wx--71005.8 993.4 0.4---wx---
2019-05-20 16:00:00 22.8 16.0 18.3--- 6635.0wxwxwxwxwx6wx--61004.2 992.0 -1.0---------
2019-05-20 15:00:00 22.1 16.2 18.1--- 6935.0wxwxwxwxwx6wx--61005.0 992.7 -0.4---wx-w1w2--
2019-05-20 14:00:00 22.6 17.2 18.9--- 7235.0wxwxwxwxwx5wx--51005.3 993.0 -0.1---------
2019-05-20 13:00:00 21.9 17.1 18.6--- 7435.0wxwxwxwx3wx--31005.4 993.0 0.2---wx-w1--
2019-05-20 12:00:00 23.1 16.3 18.6--- 6635.0wxwxwxwxwx4wx-1141005.4 993.1 0.7- 0.06wx---
2019-05-20 11:00:00 24.5 17.1 19.6--- 6335.0wxwxwxwx6wx-1161005.4 993.1 0.8---------
2019-05-20 10:00:00 24.3 16.4 19.1--- 6135.0wxwxwxwxwx7wx--71005.1 992.8 0.3---------
2019-05-20 09:00:00 23.6 17.0 19.2--- 6735.0wxwxwxwxwx7wx--71004.7 992.4 -0.3---------
2019-05-20 08:00:00 23.0 17.6 19.3--- 7235.0wxwxwxwx6wx--61004.6 992.3 -1.0---------
2019-05-20 07:00:00 21.6 16.9 18.4--- 7535.0wxwxwxwx6wx--61004.9 992.5 -0.9---------
2019-05-20 06:00:00 19.9 16.2 17.3 20.0 15.3 14 7935.0wx-wx5wx--51005.1 992.7 -0.9 2.5 0.012----- 3.3
2019-05-20 05:00:00 18.3 16.2 16.8--- 8835.0wx-wx4wx--41005.7 993.3 -0.6---------
2019-05-20 04:00:00 16.7 15.5 15.8--- 9325.0wx-wx5wx--51005.9 993.4 -1.1---------
2019-05-20 03:00:00 15.6 15.1 15.2--- 9720.0wx-wxwx4wx--41006.2 993.6 -1.0---------
2019-05-20 02:00:00 15.8 14.9 15.1--- 9420.0wx-wx3wx--31006.5 993.9 -0.9---------
2019-05-20 01:00:00 16.6 15.4 15.7--- 9330.0wx-wx4wx--41007.0 994.5 -0.7---------
2019-05-20 00:00:00 16.9 15.7 16.0--- 9330.0wx-wx4wx--41007.1 994.6 -0.6- 0.06------
2019-05-19 23:00:00 16.5 15.5 15.8--- 9430.0wx-wx3wx--31007.3 994.8 -0.7---------
2019-05-19 22:00:00 17.2 15.6 16.1--- 9030.0wx-wxwx4wx--41007.7 995.2 -0.1---------
2019-05-19 21:00:00 17.6 15.5 16.1--- 8830.0wx-wxwx4wx--41007.7 995.2 -0.1---------
2019-05-19 20:00:00 17.9 15.1 16.0--- 8430.0wx-wxwx2wx--21008.0 995.5 0.2---------
2019-05-19 19:00:00 18.9 15.5 16.6--- 8135.0wxwxwxwxwx1wx--11007.7 995.3 -0.3---------
2019-05-19 18:00:00 20.0 15.3 16.8 22.5 16.8- 7435.0wxwxwxwxwx2wx--21007.7 995.3 -0.1- 3.012wx-w1--
2019-05-19 17:00:00 21.2 15.2 17.2--- 6935.0wxwxwxwx4wx--41007.6 995.3 -0.1---------
2019-05-19 16:00:00 22.1 15.3 17.6--- 6535.0wxwxwx5wx--51007.9 995.6 -0.2---------
2019-05-19 15:00:00 22.4 15.6 17.9--- 6535.0wxwxwx6wx--61007.7 995.4 -0.7---wx-w1--
2019-05-19 14:00:00 22.3 16.0 18.1--- 6835.0wxwxwxwx5wx--51007.7 995.4 -1.1---------
2019-05-19 13:00:00 20.8 16.3 17.7--- 7535.0wxwxwxwxwx5wx--51008.2 995.8 -0.9---wx---
2019-05-19 12:00:00 21.6 16.2 18.0--- 7135.0wxwxwxwx4wx--41008.4 996.1 -0.6--6wx-w1--
2019-05-19 11:00:00 19.8 15.5 16.9--- 7635.0wxwxwx3wx--31008.9 996.5 -0.2---------
2019-05-19 10:00:00 19.0 15.8 16.8--- 8235.0wxwxwx4wx--41009.2 996.7 0.1---------
2019-05-19 09:00:00 19.0 15.6 16.7--- 8135.0wxwxwx6wx--61009.2 996.7 0.0---wx-w1--
2019-05-19 08:00:00 17.7 15.8 16.3--- 8935.0wxwxwxwx4wx--41009.2 996.7 -0.1---wx---
2019-05-19 07:00:00 17.1 15.5 16.0--- 9035.0wxwxwxwx4wx--41009.1 996.6 -0.3---------
2019-05-19 06:00:00 16.9 15.7 16.0 19.3 15.0 15 9325.0wxwxwxwx4wx--41009.2 996.7 -0.5 8.9 1.012wx-w1- 4.0
2019-05-19 05:00:00 15.8 15.1 15.3--- 9617.0wxwxwxwx4wx--41009.4 996.8 -0.3---------
2019-05-19 04:00:00 15.2 14.8 14.9--- 9714.0wxwxwxwx3wx--31009.5 996.9 -0.3---wx---
2019-05-19 03:00:00 15.1 14.6 14.7--- 9716.0wxwxwxwx2wx--21009.8 997.2 0.2---wx-w1--
2019-05-19 02:00:00 15.2 14.7 14.8--- 9713.0wx-wx3wx--31009.7 997.1 0.0---wx-w1w2--
2019-05-19 01:00:00 15.5 14.5 14.8--- 9415.0wx-wx3wx--31009.8 997.2 0.2---wx---
2019-05-19 00:00:00 16.2 14.3 14.9--- 8935.0wx-wx4wx--41009.6 997.0 -0.1- 0.06------
2019-05-18 23:00:00 16.5 14.4 15.0--- 8735.0wx-wx4wx--41009.7 997.1 0.0---------
2019-05-18 22:00:00 17.3 15.2 15.8--- 8735.0wx-wx4wx---1009.5 997.0 -0.7---------
2019-05-18 21:00:00 17.1 15.7 16.1--- 9135.0wx-wx3wx---1009.6 997.1 -0.3---------
2019-05-18 20:00:00 17.4 15.7 16.2--- 9035.0wx-wxwx3wx--31009.6 997.1 -0.3---------
2019-05-18 19:00:00 18.5 16.2 16.9--- 8635.0wx-wxwx4wx--41010.2 997.7 0.7---------
2019-05-18 18:00:00 19.3 15.3 16.6 23.4 14.3- 7835.0wx-wxwx4wx--41009.8 997.4 -0.2- 8.012------
2019-05-18 17:00:00 21.3 15.2 17.3--- 6835.0wxwxwxwx4wx--41009.8 997.4 -0.4---------
2019-05-18 16:00:00 23.1 14.5 17.6--- 5835.0wxwxwxwxwx2wx--21009.3 997.0 -1.1---------
2019-05-18 15:00:00 23.3 14.1 17.4--- 5635.0wxwxwxwxwx3wx--31009.9 997.6 -1.2---------
2019-05-18 14:00:00 22.5 14.7 17.4--- 6135.0wxwxwxwxwx3wx--31010.1 997.8 -1.1---------
2019-05-18 13:00:00 21.7 15.9 17.8--- 7035.0wxwxwxwxwx3wx--31010.5 998.1 -1.1---------
2019-05-18 12:00:00 20.7 16.0 17.5--- 7535.0wxwxwxwxwx3wx-1031011.2 998.8 -0.1- 8.06wx-w1w2--
2019-05-18 11:00:00 19.5 15.9 17.0--- 8035.0wxwxwxwx3wx--31011.4 998.9 -1.2---------
2019-05-18 10:00:00 18.2 15.9 16.6--- 8630.0wxwxwxwxwx4wx--41011.7 999.2 0.5---------
2019-05-18 09:00:00 16.1 15.4 15.6--- 9615.0wxwxwxwx1wx-1011011.5 998.9 -0.5---wx-w1w2--
2019-05-18 08:00:00 15.3 14.8 14.9--- 9715.0wxwxwxwx5wx101051012.81000.1 0.4---wx---
2019-05-18 07:00:00 14.8 14.1 14.3--- 9610.0wxwxwx2wx--21011.4 998.7 -0.7---wx-w1w2--
2019-05-18 06:00:00 14.4 13.9 14.0 17.6 13.9 11 975.0wxwxwx2wx--21012.1 999.4 0.0 12.7 9.012wx-w1w2- 2.9
2019-05-18 05:00:00 14.2 13.3 13.5--- 945.0wxwxwx3wx--31012.4 999.7 0.3---wx---
2019-05-18 04:00:00 14.3 13.8 13.9--- 976.0wx-wxwx2wx---1012.1 999.4 -0.6---wx---
2019-05-18 03:00:00 13.9 12.6 13.0--- 9217.0wx-wxwx2wx--21012.1 999.4 -1.0---------
2019-05-18 02:00:00 14.1 12.4 12.9--- 9022.0wx-wxwx2wx--21012.1 999.4 -0.8---------
2019-05-18 01:00:00 14.5 12.6 13.2--- 8823.0wx-wxwx2wx---1012.71000.0 -0.7---------
2019-05-18 00:00:00 14.8 12.9 13.5--- 8822.0wx-wxwx1wx--11013.11000.4 -0.2- 0.06------
2019-05-17 23:00:00 15.3 13.1 13.8--- 8722.0wx-wxwx0---01012.91000.2 -0.6---------
2019-05-17 22:00:00 16.3 13.7 14.5--- 8529.0wx-wx1wx---1013.31000.7 -0.1---------
2019-05-17 21:00:00 15.4 13.9 14.3--- 9135.0wx-wxwx1wx--11013.31000.6 0.5---------
2019-05-17 20:00:00 15.6 13.9 14.4--- 9035.0wx-wxwx0---01013.51000.8 0.8---------
2019-05-17 19:00:00 15.7 13.5 14.2--- 8735.0wx-wxwx1wx--11013.41000.8 0.8---------
2019-05-17 18:00:00 17.5 14.7 15.6 20.3 15.4- 8435.0wx-wxwx0---01012.71000.1 0.0- 4.012wx-w1w2--
2019-05-17 17:00:00 18.9 13.6 15.4--- 7135.0wxwxwxwxwx1wx--11012.51000.0 -0.1---------
2019-05-17 16:00:00 19.2 13.9 15.7--- 7135.0wxwxwxwxwx3wx--31012.51000.0 0.2---------
2019-05-17 15:00:00 18.5 14.1 15.6--- 7635.0wxwxwxwx2wx---1012.61000.1 0.6---wx-w1w2--
2019-05-17 14:00:00 15.6 14.2 14.6--- 9121.0wxwxwx1wx--11012.71000.1 1.0---wx---
2019-05-17 13:00:00 17.7 14.5 15.5--- 8223.0wxwxwx2wx--21012.3 999.8 0.7---wx-w1--
2019-05-17 12:00:00 19.7 13.3 15.6--- 6735.0wxwxwxwx4wx--41012.0 999.5 0.0- 0.06------
2019-05-17 11:00:00 19.1 13.4 15.4--- 7020.0wxwxwxwx5wx--51011.6 999.1 -0.5---------
2019-05-17 10:00:00 18.9 14.3 15.8--- 7526.0wxwxwxwx3wx---1011.6 999.1 -0.4---------
2019-05-17 09:00:00 17.7 14.5 15.5--- 8230.0wxwxwxwx4wx--41012.0 999.5 0.3---------
2019-05-17 08:00:00 16.5 14.4 15.0--- 8710.0wxwxwx2wx--21012.2 999.6 0.8---------
2019-05-17 07:00:00 16.0 14.1 14.7--- 898.0wxwxwx3wx--31012.1 999.5 0.8---wx---
2019-05-17 06:00:00 15.5 14.3 14.6 15.6 13.8 13 9312.0wxwxwx4wx--41011.8 999.2 0.3 7.5 7.012wx-w1- 1.5
2019-05-17 05:00:00 15.0 14.5 14.6--- 9713.0wxwxwx3wx--31011.5 998.8 -0.1---------
2019-05-17 04:00:00 14.3 14.1 14.1--- 9910.0wxwxwxwx2wx--21011.4 998.7 -0.5---------
2019-05-17 03:00:00 14.2 13.8 13.9--- 9710.0wxwxwx0---01011.6 998.9 -0.8---wx-w1--
2019-05-17 02:00:00 14.1 13.7 13.8--- 9716.0wxwxwx0---01011.6 998.9 -1.3---------
2019-05-17 01:00:00 14.3 13.9 14.0--- 9710.0wxwxwx0---01011.9 999.2 -1.3---wx---
2019-05-17 00:00:00 14.3 13.9 14.0--- 9710.0wxwxwx1wx--11012.4 999.7 -1.2- 6.06wx-w1--
2.6 ms

 

Print Friendly, PDF & Email